Time;durP1;ratioP1;P1;durP2;ratioP2;P2;SDS_P1;SDS_P2;PMS_P1;PMS_P2;Temp;Humidity;BMP_temperature;BMP_pressure;BME280_temperature;BME280_humidity;BME280_pressure;Samples;Min_cycle;Max_cycle;Signal;HPM_P1;HPM_P2
2023/01/28 00:01:23;;;;;;;6.33;5.43;;;2.20;1.00;;;;;;5042766;28;20226;-58
2023/01/28 00:03:51;;;;;;;6.47;5.63;;;2.20;1.00;;;;;;5023401;28;20585;-57
2023/01/28 00:06:18;;;;;;;6.33;5.67;;;2.20;1.00;;;;;;5010792;28;20200;-58
2023/01/28 00:08:45;;;;;;;6.50;5.70;;;2.20;1.00;;;;;;5026730;28;20279;-57
2023/01/28 00:11:12;;;;;;;6.47;5.40;;;2.10;1.00;;;;;;5027443;28;20247;-58
2023/01/28 00:13:41;;;;;;;5.87;5.30;;;2.10;1.00;;;;;;5029213;28;20622;-59
2023/01/28 00:16:08;;;;;;;7.53;5.50;;;2.10;1.00;;;;;;5026266;28;20253;-59
2023/01/28 00:18:36;;;;;;;6.00;4.80;;;2.10;1.00;;;;;;5046237;28;20505;-58
2023/01/28 00:21:12;;;;;;;7.23;5.10;;;2.10;1.00;;;;;;5046572;28;20223;-59
2023/01/28 00:23:41;;;;;;;6.37;5.37;;;2.10;1.00;;;;;;5022655;28;20773;-59
2023/01/28 00:26:13;;;;;;;6.20;5.50;;;2.10;1.00;;;;;;5020967;28;20195;-59
2023/01/28 00:28:43;;;;;;;9.17;6.20;;;2.10;1.00;;;;;;5026894;28;20254;-65
2023/01/28 00:31:20;;;;;;;11.10;6.03;;;2.10;1.00;;;;;;5045403;28;20334;-58
2023/01/28 00:33:48;;;;;;;9.53;5.60;;;2.10;1.00;;;;;;5028522;28;20233;-58
2023/01/28 00:36:17;;;;;;;7.73;5.70;;;2.10;1.00;;;;;;5043778;28;20642;-59
2023/01/28 00:38:49;;;;;;;8.57;6.37;;;2.10;1.00;;;;;;5027518;28;20227;-58
2023/01/28 00:41:20;;;;;;;6.70;5.73;;;2.10;1.00;;;;;;5022269;28;20239;-57
2023/01/28 00:43:50;;;;;;;6.10;5.47;;;2.10;1.00;;;;;;5043786;28;20226;-59
2023/01/28 00:46:18;;;;;;;7.90;5.57;;;2.10;1.00;;;;;;5042931;28;20211;-59
2023/01/28 00:48:46;;;;;;;6.10;5.50;;;2.10;1.00;;;;;;5027001;28;20197;-59
2023/01/28 00:51:16;;;;;;;10.60;6.33;;;2.10;1.00;;;;;;5026894;28;20629;-59
2023/01/28 00:53:43;;;;;;;6.67;5.97;;;2.10;1.00;;;;;;5019568;28;20273;-58
2023/01/28 00:56:14;;;;;;;5.70;5.10;;;2.00;1.00;;;;;;5026255;28;20202;-59
2023/01/28 00:58:41;;;;;;;7.50;5.47;;;2.00;1.00;;;;;;5026053;28;20226;-58
2023/01/28 01:01:13;;;;;;;5.90;5.30;;;2.00;1.00;;;;;;5026205;28;20269;-59
2023/01/28 01:03:41;;;;;;;6.50;5.30;;;2.00;1.00;;;;;;5026500;28;20272;-58
2023/01/28 01:06:10;;;;;;;6.70;5.60;;;2.00;1.00;;;;;;5026492;28;20265;-58
2023/01/28 01:08:41;;;;;;;5.80;5.30;;;2.00;1.00;;;;;;5044890;28;20576;-62
2023/01/28 01:11:10;;;;;;;6.00;5.40;;;1.90;1.00;;;;;;5028055;28;20622;-60
2023/01/28 01:13:38;;;;;;;6.50;5.30;;;1.90;1.00;;;;;;5043241;28;20287;-57
2023/01/28 01:16:07;;;;;;;8.00;5.00;;;1.90;1.00;;;;;;5025730;28;20231;-57
2023/01/28 01:18:35;;;;;;;5.10;4.60;;;1.90;1.00;;;;;;5025970;28;20693;-58
2023/01/28 01:21:16;;;;;;;11.87;5.53;;;1.90;1.00;;;;;;5044473;28;20238;-57
2023/01/28 01:23:44;;;;;;;6.23;5.10;;;1.80;1.00;;;;;;5020342;28;20206;-57
2023/01/28 01:26:12;;;;;;;6.00;5.40;;;1.80;1.00;;;;;;5010600;28;20241;-57
2023/01/28 01:28:39;;;;;;;9.13;5.80;;;1.80;1.00;;;;;;5045559;28;20238;-57
2023/01/28 01:31:12;;;;;;;9.07;5.90;;;1.80;1.00;;;;;;5048576;28;20207;-58
2023/01/28 01:33:41;;;;;;;7.63;5.60;;;1.80;1.00;;;;;;5031465;28;20219;-58
2023/01/28 01:36:09;;;;;;;8.50;5.97;;;1.80;1.00;;;;;;5030617;28;20289;-59
2023/01/28 01:38:36;;;;;;;7.43;6.20;;;1.80;1.00;;;;;;5048425;28;21316;-58
2023/01/28 01:41:04;;;;;;;7.77;5.83;;;1.80;1.00;;;;;;5029653;28;20256;-58
2023/01/28 01:43:59;;;;;;;7.30;5.90;;;1.80;1.00;;;;;;5048769;28;20238;-59
2023/01/28 01:46:42;;;;;;;6.70;5.63;;;1.80;1.00;;;;;;5030347;28;20641;-58
2023/01/28 01:49:24;;;;;;;8.30;6.00;;;1.80;1.00;;;;;;5024969;28;20210;-58
2023/01/28 01:51:56;;;;;;;9.53;5.70;;;1.80;1.00;;;;;;5046569;28;20192;-61
2023/01/28 01:54:27;;;;;;;6.63;5.30;;;1.80;1.00;;;;;;5048605;28;20199;-58
2023/01/28 01:56:57;;;;;;;5.93;5.30;;;1.80;1.00;;;;;;5047212;28;20273;-58
2023/01/28 01:59:31;;;;;;;8.77;6.50;;;1.70;1.00;;;;;;5023112;28;20616;-58
2023/01/28 02:02:01;;;;;;;6.30;5.70;;;1.70;1.00;;;;;;5042887;28;20249;-58
2023/01/28 02:04:32;;;;;;;8.03;5.93;;;1.70;1.00;;;;;;5047064;28;20698;-59
2023/01/28 02:07:01;;;;;;;5.83;5.33;;;1.70;1.00;;;;;;5046639;28;20192;-65
2023/01/28 02:09:30;;;;;;;7.17;5.70;;;1.70;1.00;;;;;;5022970;28;20207;-65
2023/01/28 02:12:12;;;;;;;10.50;6.10;;;1.60;1.00;;;;;;5047027;28;20674;-66
2023/01/28 02:14:52;;;;;;;7.33;5.80;;;1.70;1.00;;;;;;5038926;28;20569;-65
2023/01/28 02:17:19;;;;;;;7.27;6.27;;;1.70;1.00;;;;;;5029179;28;20215;-64
2023/01/28 02:19:56;;;;;;;8.37;6.57;;;1.70;1.00;;;;;;5029343;28;20734;-66
2023/01/28 02:22:57;;;;;;;7.30;5.97;;;1.60;1.00;;;;;;5027937;28;20218;-66
2023/01/28 02:25:52;;;;;;;7.20;6.20;;;1.60;1.00;;;;;;5027908;28;20187;-67
2023/01/28 02:28:53;;;;;;;10.43;6.40;;;1.60;1.00;;;;;;5028360;28;20269;-67
2023/01/28 02:31:33;;;;;;;10.20;6.67;;;1.60;1.00;;;;;;4989698;28;20686;-66
2023/01/28 02:34:25;;;;;;;8.43;6.40;;;1.60;1.00;;;;;;5021887;28;20326;-65
2023/01/28 02:37:06;;;;;;;7.07;6.30;;;1.50;1.00;;;;;;5028316;28;20302;-59
2023/01/28 02:39:47;;;;;;;6.97;6.27;;;1.50;1.00;;;;;;5026569;28;20219;-67
2023/01/28 02:42:20;;;;;;;6.30;5.40;;;1.50;1.00;;;;;;5045297;28;20207;-64
2023/01/28 02:44:47;;;;;;;9.03;6.43;;;1.50;1.00;;;;;;5027432;28;20223;-66
2023/01/28 02:50:06;;;;;;;6.97;5.90;;;1.40;1.00;;;;;;5027085;28;20199;-58
2023/01/28 02:55:48;;;;;;;6.20;5.70;;;1.40;1.00;;;;;;5045495;28;20651;-59
2023/01/28 02:58:41;;;;;;;8.57;5.90;;;1.40;1.00;;;;;;5022140;28;20218;-60
2023/01/28 03:01:18;;;;;;;6.73;6.03;;;1.40;1.00;;;;;;5027942;28;20212;-59
2023/01/28 03:04:27;;;;;;;6.00;5.40;;;1.40;1.00;;;;;;5005031;28;20215;-58
2023/01/28 03:06:59;;;;;;;6.90;6.00;;;1.40;1.00;;;;;;5027253;28;20265;-59
2023/01/28 03:09:26;;;;;;;7.13;5.57;;;1.40;1.00;;;;;;5027896;28;20199;-59
2023/01/28 03:38:21;;;;;;;7.03;6.37;;;1.40;1.00;;;;;;5046203;28;20192;-64
2023/01/28 03:40:59;;;;;;;7.57;6.00;;;1.40;1.00;;;;;;5028034;28;20276;-65
2023/01/28 03:43:27;;;;;;;7.93;6.40;;;1.50;1.00;;;;;;5028345;28;20226;-63
2023/01/28 03:45:55;;;;;;;6.60;5.80;;;1.50;1.00;;;;;;5021867;28;20218;-66
2023/01/28 03:48:24;;;;;;;6.57;5.73;;;1.50;1.00;;;;;;5011929;28;20230;-66
2023/01/28 03:50:54;;;;;;;6.10;5.60;;;1.50;1.00;;;;;;5043925;28;20254;-65
2023/01/28 03:53:23;;;;;;;6.67;5.10;;;1.50;1.00;;;;;;5021860;28;20207;-64
2023/01/28 03:55:52;;;;;;;6.03;5.43;;;1.60;1.00;;;;;;5011746;28;20283;-65
2023/01/28 03:58:21;;;;;;;5.30;4.80;;;1.60;1.00;;;;;;5046807;28;20188;-64
2023/01/28 04:00:49;;;;;;;6.37;5.07;;;1.60;1.00;;;;;;5011991;28;20203;-65
2023/01/28 04:03:19;;;;;;;9.37;5.90;;;1.50;1.00;;;;;;5028202;28;20889;-65
2023/01/28 04:05:59;;;;;;;6.87;5.57;;;1.40;1.00;;;;;;5045514;28;20184;-65
2023/01/28 04:09:05;;;;;;;6.37;5.77;;;1.40;1.00;;;;;;4938757;28;20702;-66
2023/01/28 04:11:49;;;;;;;7.33;5.10;;;1.40;1.00;;;;;;4936943;28;20203;-65
2023/01/28 04:14:22;;;;;;;7.53;5.30;;;1.40;1.00;;;;;;4996665;28;20233;-62
2023/01/28 04:16:53;;;;;;;6.73;5.17;;;1.40;1.00;;;;;;5027763;28;20257;-66
2023/01/28 04:19:23;;;;;;;5.40;4.97;;;1.40;1.00;;;;;;5027565;28;20677;-65
2023/01/28 04:21:52;;;;;;;6.27;4.90;;;1.40;1.00;;;;;;5045627;28;20672;-65
2023/01/28 04:24:21;;;;;;;8.23;5.70;;;1.50;1.00;;;;;;5027231;28;20694;-66
2023/01/28 04:26:49;;;;;;;6.97;5.97;;;1.40;1.00;;;;;;5027385;28;20231;-66
2023/01/28 04:29:16;;;;;;;6.07;5.50;;;1.50;1.00;;;;;;5020495;28;20898;-66
2023/01/28 04:31:43;;;;;;;5.50;5.00;;;1.50;1.00;;;;;;5016604;28;20280;-66
2023/01/28 04:34:33;;;;;;;5.53;5.03;;;1.60;1.00;;;;;;5024217;28;20294;-65
2023/01/28 04:37:20;;;;;;;6.60;5.53;;;1.50;1.00;;;;;;5033038;28;20212;-58
2023/01/28 04:40:06;;;;;;;6.00;5.43;;;1.40;1.00;;;;;;5034705;28;20203;-61
2023/01/28 04:42:56;;;;;;;6.50;5.90;;;1.40;1.00;;;;;;5015136;28;20659;-60
2023/01/28 04:45:30;;;;;;;6.13;5.53;;;1.40;1.00;;;;;;5014984;28;20226;-61
2023/01/28 04:48:18;;;;;;;7.67;5.90;;;1.40;1.00;;;;;;5033790;28;20266;-61
2023/01/28 04:51:05;;;;;;;6.70;5.87;;;1.50;1.00;;;;;;5016604;28;20261;-61
2023/01/28 04:54:00;;;;;;;6.57;5.40;;;1.40;1.00;;;;;;5035315;28;20232;-60
2023/01/28 04:56:32;;;;;;;6.57;5.97;;;1.40;1.00;;;;;;5015721;28;20498;-69
2023/01/28 04:59:01;;;;;;;5.93;5.37;;;1.40;1.00;;;;;;5017257;28;20226;-67
2023/01/28 05:01:29;;;;;;;5.80;5.30;;;1.50;1.00;;;;;;5018141;28;20235;-67
2023/01/28 05:03:56;;;;;;;6.70;5.50;;;1.50;1.00;;;;;;5001541;28;20294;-67
2023/01/28 05:06:26;;;;;;;8.17;5.30;;;1.50;1.00;;;;;;5015807;28;20204;-67
2023/01/28 05:08:55;;;;;;;6.17;5.27;;;1.50;1.00;;;;;;5017714;28;20678;-66
2023/01/28 05:11:23;;;;;;;6.50;5.13;;;1.40;1.00;;;;;;5016253;28;20711;-68
2023/01/28 05:13:55;;;;;;;6.97;5.40;;;1.40;1.00;;;;;;5002388;28;20766;-66
2023/01/28 05:16:25;;;;;;;6.87;5.53;;;1.40;1.00;;;;;;5015455;28;20208;-66
2023/01/28 05:18:52;;;;;;;5.23;4.73;;;1.30;1.00;;;;;;5017032;28;20214;-66
2023/01/28 05:21:20;;;;;;;6.40;5.30;;;1.30;1.00;;;;;;4998795;28;20240;-68
2023/01/28 05:23:52;;;;;;;8.23;5.50;;;1.30;1.00;;;;;;5002555;28;20218;-67
2023/01/28 05:26:20;;;;;;;7.13;5.00;;;1.30;1.00;;;;;;5014325;28;20290;-68
2023/01/28 05:28:50;;;;;;;5.80;5.17;;;1.30;1.00;;;;;;4999873;28;20711;-67
2023/01/28 05:31:17;;;;;;;6.27;5.67;;;1.20;1.00;;;;;;5000157;28;20695;-67
2023/01/28 05:33:44;;;;;;;5.93;5.37;;;1.20;1.00;;;;;;5014951;28;20212;-67
2023/01/28 05:36:12;;;;;;;6.07;5.47;;;1.30;1.00;;;;;;5006687;28;20215;-68
2023/01/28 05:38:40;;;;;;;6.27;5.67;;;1.20;1.00;;;;;;5024185;28;20585;-67
2023/01/28 05:41:07;;;;;;;6.67;5.70;;;1.10;1.00;;;;;;5024201;28;20204;-67
2023/01/28 05:43:35;;;;;;;6.20;5.60;;;1.10;1.00;;;;;;5004748;28;20236;-64
2023/01/28 05:46:15;;;;;;;6.37;5.20;;;1.10;1.00;;;;;;5003921;28;20586;-67
2023/01/28 05:49:00;;;;;;;5.83;5.27;;;1.10;1.00;;;;;;5005499;28;20227;-66
2023/01/28 05:51:48;;;;;;;6.27;5.60;;;1.10;1.00;;;;;;5003297;28;20571;-67
2023/01/28 05:54:18;;;;;;;6.80;5.63;;;1.20;1.00;;;;;;5000504;28;20546;-65
2023/01/28 05:56:47;;;;;;;5.73;5.23;;;1.10;1.00;;;;;;4999874;28;20243;-65
2023/01/28 05:59:14;;;;;;;8.13;5.90;;;1.00;1.00;;;;;;5005670;28;20625;-65
2023/01/28 06:01:42;;;;;;;10.03;5.63;;;1.00;1.00;;;;;;4991977;28;20420;-65
2023/01/28 06:04:09;;;;;;;6.10;5.50;;;1.10;1.00;;;;;;5025098;28;20212;-65
2023/01/28 06:06:38;;;;;;;7.57;5.87;;;1.20;1.00;;;;;;5022388;28;20323;-64
2023/01/28 06:09:05;;;;;;;7.60;5.77;;;1.30;1.00;;;;;;5005835;28;20220;-59
2023/01/28 06:11:34;;;;;;;7.10;5.60;;;1.20;1.00;;;;;;4998093;28;20208;-58
2023/01/28 06:14:03;;;;;;;6.30;5.80;;;1.20;1.00;;;;;;4999567;28;20288;-57
2023/01/28 06:16:51;;;;;;;6.10;5.20;;;1.20;1.00;;;;;;5026889;28;20222;-58
2023/01/28 06:19:44;;;;;;;6.20;5.57;;;1.20;1.00;;;;;;5024747;28;20212;-65
2023/01/28 06:22:11;;;;;;;7.47;6.70;;;1.20;1.00;;;;;;5010150;28;20694;-66
2023/01/28 06:24:38;;;;;;;7.10;6.40;;;1.10;1.00;;;;;;5028312;28;20219;-66
2023/01/28 06:27:05;;;;;;;8.23;6.40;;;1.10;1.00;;;;;;5008244;28;20208;-67
2023/01/28 06:29:32;;;;;;;6.90;6.20;;;1.20;1.00;;;;;;5027232;28;20239;-60
2023/01/28 06:31:59;;;;;;;7.37;6.67;;;1.10;1.00;;;;;;5047279;28;20297;-59
2023/01/28 06:34:26;;;;;;;9.53;8.00;;;1.10;1.00;;;;;;5048058;28;20385;-69
2023/01/28 06:36:53;;;;;;;11.67;8.47;;;1.10;1.00;;;;;;5046994;28;20238;-60
2023/01/28 06:39:23;;;;;;;7.53;6.80;;;1.10;1.00;;;;;;5046728;28;20656;-60
2023/01/28 06:41:50;;;;;;;10.27;6.47;;;1.10;1.00;;;;;;5024641;28;20196;-58
2023/01/28 06:44:17;;;;;;;7.70;7.00;;;1.00;1.00;;;;;;5046767;28;20235;-62
2023/01/28 06:46:44;;;;;;;7.63;6.93;;;1.10;1.00;;;;;;5028196;28;20199;-58
2023/01/28 06:49:11;;;;;;;7.97;7.17;;;1.10;1.00;;;;;;5027979;28;20203;-58
2023/01/28 06:51:38;;;;;;;9.27;7.47;;;1.00;1.00;;;;;;5046240;28;20215;-58
2023/01/28 06:54:05;;;;;;;10.97;8.00;;;1.00;1.00;;;;;;5027948;28;20257;-59
2023/01/28 06:56:32;;;;;;;9.07;7.43;;;1.00;1.00;;;;;;5046598;28;20287;-58
2023/01/28 06:58:59;;;;;;;7.70;7.00;;;1.00;1.00;;;;;;5047900;28;20196;-60
2023/01/28 07:01:26;;;;;;;7.77;6.97;;;1.10;1.00;;;;;;5047415;28;20357;-60
2023/01/28 07:03:53;;;;;;;14.30;9.33;;;1.00;1.00;;;;;;5047126;28;20199;-59
2023/01/28 07:06:20;;;;;;;12.10;8.30;;;1.00;1.00;;;;;;5028375;28;20694;-64
2023/01/28 07:08:47;;;;;;;12.23;10.33;;;0.90;1.00;;;;;;5046547;28;20631;-60
2023/01/28 07:11:15;;;;;;;12.13;9.80;;;0.90;1.00;;;;;;5046161;28;20695;-58
2023/01/28 07:13:42;;;;;;;9.20;7.70;;;0.90;1.00;;;;;;5046661;28;20286;-61
2023/01/28 07:16:09;;;;;;;8.10;6.80;;;1.00;1.00;;;;;;5046519;28;20287;-63
2023/01/28 07:18:36;;;;;;;12.13;8.27;;;1.00;1.00;;;;;;5046307;28;20873;-57
2023/01/28 07:21:03;;;;;;;11.13;8.33;;;1.00;1.00;;;;;;5046561;28;20214;-60
2023/01/28 07:23:30;;;;;;;13.30;10.63;;;1.00;1.00;;;;;;5045726;28;20192;-60
2023/01/28 07:26:03;;;;;;;9.10;8.20;;;0.90;1.00;;;;;;5044708;28;20247;-60
2023/01/28 07:28:31;;;;;;;12.87;9.93;;;0.90;1.00;;;;;;5026613;28;20279;-59
2023/01/28 07:30:58;;;;;;;9.97;8.27;;;0.90;1.00;;;;;;5045350;28;20188;-59
2023/01/28 07:33:25;;;;;;;8.70;7.80;;;0.90;1.00;;;;;;5045727;28;20192;-59
2023/01/28 07:35:52;;;;;;;11.00;8.17;;;1.00;1.00;;;;;;5036621;28;20226;-60
2023/01/28 07:38:19;;;;;;;8.17;7.37;;;1.00;1.00;;;;;;5044209;28;20210;-60
2023/01/28 07:40:46;;;;;;;9.20;7.30;;;1.10;1.00;;;;;;5044470;28;20358;-59
2023/01/28 07:43:14;;;;;;;10.43;7.47;;;1.10;1.00;;;;;;5027625;28;20211;-59
2023/01/28 07:45:41;;;;;;;7.97;7.23;;;1.00;1.00;;;;;;5039676;28;20219;-59
2023/01/28 07:48:11;;;;;;;7.70;6.90;;;1.10;1.00;;;;;;5044849;28;20192;-58
2023/01/28 07:50:39;;;;;;;7.50;6.77;;;1.10;1.00;;;;;;5045347;28;20204;-58
2023/01/28 07:53:09;;;;;;;8.57;7.67;;;1.00;1.00;;;;;;5042306;28;20677;-58
2023/01/28 07:55:37;;;;;;;8.23;7.43;;;1.10;1.00;;;;;;5046689;28;20567;-65
2023/01/28 07:58:05;;;;;;;8.17;7.37;;;1.10;1.00;;;;;;5028439;28;20233;-65
2023/01/28 08:00:35;;;;;;;7.80;7.00;;;1.10;1.00;;;;;;5045398;28;20235;-63
2023/01/28 08:03:05;;;;;;;8.20;7.40;;;1.20;1.00;;;;;;5027753;28;20261;-65
2023/01/28 08:05:50;;;;;;;10.23;9.20;;;1.20;1.00;;;;;;5028078;28;20212;-69
2023/01/28 08:08:18;;;;;;;11.57;9.53;;;1.20;1.00;;;;;;5046540;28;20536;-68
2023/01/28 08:10:45;;;;;;;15.57;11.90;;;1.30;1.00;;;;;;5046893;28;20226;-66
2023/01/28 08:13:13;;;;;;;13.10;9.57;;;1.40;1.00;;;;;;5022683;28;20199;-69
2023/01/28 08:15:40;;;;;;;9.97;8.57;;;1.40;1.00;;;;;;5046071;28;20654;-69
2023/01/28 08:18:09;;;;;;;16.20;9.30;;;1.50;1.00;;;;;;5045804;28;20253;-67
2023/01/28 08:20:36;;;;;;;11.17;10.03;;;1.50;1.00;;;;;;5045962;28;20210;-68
2023/01/28 08:23:08;;;;;;;12.53;10.50;;;1.60;1.00;;;;;;5045920;28;20770;-70
2023/01/28 08:25:35;;;;;;;23.03;15.17;;;1.70;1.00;;;;;;5045395;28;20269;-66
2023/01/28 08:28:03;;;;;;;10.90;9.73;;;1.80;1.00;;;;;;5045342;28;20306;-66
2023/01/28 08:30:30;;;;;;;9.60;8.43;;;1.90;1.00;;;;;;5028128;28;20536;-68
2023/01/28 08:32:58;;;;;;;10.17;8.40;;;1.90;1.00;;;;;;5046639;28;20227;-65
2023/01/28 08:35:26;;;;;;;9.87;8.17;;;2.00;1.00;;;;;;5046005;28;20234;-69
2023/01/28 08:37:54;;;;;;;9.67;8.20;;;2.00;1.00;;;;;;5044869;28;20298;-67
2023/01/28 08:40:21;;;;;;;8.13;7.33;;;2.10;1.00;;;;;;5045763;28;20207;-67
2023/01/28 08:42:49;;;;;;;7.90;6.80;;;2.00;1.00;;;;;;5026783;28;20203;-68
2023/01/28 08:45:16;;;;;;;7.07;6.37;;;1.90;1.00;;;;;;5045767;28;20644;-67
2023/01/28 08:47:58;;;;;;;10.70;9.57;;;1.90;1.00;;;;;;5043585;28;20278;-65
2023/01/28 08:50:28;;;;;;;19.20;12.83;;;2.00;1.00;;;;;;5047252;28;20201;-65
2023/01/28 08:52:56;;;;;;;8.00;6.67;;;2.10;1.00;;;;;;5045133;28;20249;-61
2023/01/28 08:55:25;;;;;;;8.30;6.60;;;2.20;1.00;;;;;;5045114;28;20227;-60
2023/01/28 08:57:53;;;;;;;6.93;6.23;;;2.00;1.00;;;;;;5020717;28;20211;-59
2023/01/28 09:00:21;;;;;;;30.37;22.23;;;2.00;1.00;;;;;;5046111;28;20426;-65
2023/01/28 09:02:51;;;;;;;15.03;9.90;;;2.10;1.00;;;;;;5044448;28;20204;-67
2023/01/28 09:05:20;;;;;;;7.60;6.43;;;2.30;1.00;;;;;;5045075;28;20218;-59
2023/01/28 09:07:47;;;;;;;6.93;5.30;;;2.20;1.00;;;;;;5032866;28;20235;-58
2023/01/28 09:10:16;;;;;;;7.17;5.90;;;2.00;1.00;;;;;;5019374;28;20203;-67
2023/01/28 09:12:43;;;;;;;7.17;6.30;;;2.00;1.00;;;;;;5046442;28;20199;-66
2023/01/28 09:15:11;;;;;;;6.40;5.40;;;2.10;1.00;;;;;;5023143;28;20270;-64
2023/01/28 09:17:39;;;;;;;7.27;5.57;;;2.20;1.00;;;;;;5046781;28;20203;-63
2023/01/28 09:20:07;;;;;;;6.00;5.40;;;2.30;1.00;;;;;;5046416;28;20234;-66
2023/01/28 09:22:34;;;;;;;5.13;4.70;;;2.30;1.00;;;;;;5046726;28;20270;-64
2023/01/28 09:25:01;;;;;;;5.13;4.67;;;2.30;1.00;;;;;;5045842;28;20250;-64
2023/01/28 09:27:28;;;;;;;6.43;4.80;;;2.20;1.00;;;;;;5045340;28;20639;-65
2023/01/28 09:29:54;;;;;;;5.20;4.70;;;2.10;1.00;;;;;;5045249;28;20238;-65
2023/01/28 09:32:23;;;;;;;7.47;4.93;;;2.00;1.00;;;;;;5046448;28;20286;-64
2023/01/28 09:34:50;;;;;;;6.57;4.90;;;2.00;1.00;;;;;;5027250;28;20652;-65
2023/01/28 09:37:17;;;;;;;5.83;4.90;;;1.80;1.00;;;;;;5044509;28;20223;-64
2023/01/28 09:39:44;;;;;;;6.53;4.87;;;1.80;1.00;;;;;;5044967;28;20693;-64
2023/01/28 09:42:34;;;;;;;5.00;4.50;;;1.80;1.00;;;;;;5026894;28;20212;-64
2023/01/28 09:45:10;;;;;;;7.70;4.50;;;1.90;1.00;;;;;;5044336;28;20291;-57
2023/01/28 09:47:54;;;;;;;5.17;4.67;;;2.20;1.00;;;;;;5043305;28;20195;-60
2023/01/28 09:50:34;;;;;;;5.33;4.83;;;2.20;1.00;;;;;;5043770;28;20214;-57
2023/01/28 09:53:23;;;;;;;6.13;5.60;;;2.40;1.00;;;;;;5027924;28;20203;-56
2023/01/28 09:56:01;;;;;;;5.10;4.60;;;2.30;1.00;;;;;;5045958;28;20199;-57
2023/01/28 09:58:28;;;;;;;5.97;5.30;;;2.20;1.00;;;;;;5048416;28;20612;-65
2023/01/28 10:00:55;;;;;;;6.00;5.27;;;2.30;1.00;;;;;;5048853;28;21118;-65
2023/01/28 10:03:32;;;;;;;6.37;5.53;;;2.60;1.00;;;;;;5049951;28;20191;-65
2023/01/28 10:06:23;;;;;;;6.07;5.47;;;2.70;1.00;;;;;;5025862;28;20325;-66
2023/01/28 10:09:05;;;;;;;6.37;5.43;;;2.70;1.00;;;;;;5047907;28;20195;-65
2023/01/28 10:11:53;;;;;;;5.73;5.23;;;2.70;1.00;;;;;;5049304;28;20531;-65
2023/01/28 10:14:25;;;;;;;6.40;5.67;;;2.70;1.00;;;;;;5022611;28;20196;-65
2023/01/28 10:17:17;;;;;;;6.10;5.60;;;2.70;1.00;;;;;;5048504;28;20353;-65
2023/01/28 10:19:52;;;;;;;7.13;5.93;;;2.70;1.00;;;;;;5048096;28;20204;-65
2023/01/28 10:22:29;;;;;;;13.23;9.10;;;2.70;1.00;;;;;;5030385;28;20204;-67
2023/01/28 10:25:00;;;;;;;10.03;7.23;;;2.90;1.00;;;;;;5048382;28;20282;-67
2023/01/28 10:27:30;;;;;;;16.50;12.43;;;3.10;1.00;;;;;;5047678;28;20203;-65
2023/01/28 10:30:17;;;;;;;17.80;14.50;;;3.20;1.00;;;;;;5048148;28;20203;-67
2023/01/28 10:32:55;;;;;;;8.27;7.23;;;3.20;1.00;;;;;;5049198;28;21137;-65
2023/01/28 10:35:23;;;;;;;6.30;5.70;;;3.20;1.00;;;;;;5030247;28;20739;-68
2023/01/28 10:37:58;;;;;;;9.00;6.30;;;3.20;1.00;;;;;;5047649;28;20643;-55
2023/01/28 10:40:25;;;;;;;7.33;6.03;;;2.90;1.00;;;;;;5046012;28;20218;-56
2023/01/28 10:42:52;;;;;;;9.00;6.10;;;2.60;1.00;;;;;;5046761;28;20303;-56
2023/01/28 10:45:27;;;;;;;6.47;5.87;;;2.50;1.00;;;;;;5046954;28;20625;-63
2023/01/28 10:48:23;;;;;;;7.67;6.77;;;2.50;1.00;;;;;;5048194;28;20211;-64
2023/01/28 10:50:55;;;;;;;7.87;6.10;;;2.40;1.00;;;;;;5048021;28;20294;-63
2023/01/28 10:53:39;;;;;;;17.57;10.17;;;2.70;1.00;;;;;;5029846;28;20290;-64
2023/01/28 10:56:22;;;;;;;20.20;14.93;;;3.30;1.00;;;;;;5047778;28;20727;-64
2023/01/28 10:59:03;;;;;;;11.97;10.77;;;3.80;1.00;;;;;;5049653;28;20193;-65
2023/01/28 11:01:43;;;;;;;9.20;8.30;;;4.20;1.00;;;;;;5046846;28;20280;-66
2023/01/28 11:04:25;;;;;;;8.33;7.10;;;4.40;1.00;;;;;;5047997;28;20671;-64
2023/01/28 11:07:19;;;;;;;7.03;6.40;;;4.20;1.00;;;;;;5046183;28;20208;-64
2023/01/28 11:09:50;;;;;;;7.33;6.63;;;4.00;1.00;;;;;;5045175;28;20199;-66
2023/01/28 11:12:23;;;;;;;6.70;6.10;;;3.60;1.00;;;;;;5048843;28;20192;-67
2023/01/28 11:14:52;;;;;;;6.93;5.80;;;3.40;1.00;;;;;;5048517;28;20296;-66
2023/01/28 11:17:23;;;;;;;7.17;6.47;;;3.20;1.00;;;;;;5048263;28;20245;-56
2023/01/28 11:19:55;;;;;;;14.53;10.10;;;3.30;1.00;;;;;;5047445;28;20202;-59
2023/01/28 11:22:35;;;;;;;12.80;10.83;;;3.00;1.00;;;;;;5030175;28;20207;-64
2023/01/28 11:25:14;;;;;;;8.67;7.70;;;3.10;1.00;;;;;;5047757;28;20195;-65
2023/01/28 11:27:47;;;;;;;8.47;7.33;;;3.10;1.00;;;;;;5024070;28;20213;-67
2023/01/28 11:30:33;;;;;;;8.20;7.50;;;3.10;1.00;;;;;;5047161;28;20223;-63
2023/01/28 11:33:24;;;;;;;7.57;6.87;;;3.10;1.00;;;;;;5048258;28;20198;-63
2023/01/28 11:36:13;;;;;;;11.80;8.60;;;3.00;1.00;;;;;;5047627;28;20203;-65
2023/01/28 11:39:24;;;;;;;9.90;8.90;;;3.00;1.00;;;;;;5047533;28;20253;-65
2023/01/28 11:41:52;;;;;;;10.37;9.37;;;2.60;1.00;;;;;;5033987;28;20248;-63
2023/01/28 11:44:26;;;;;;;9.33;8.43;;;2.80;1.00;;;;;;5045436;28;20539;-66
2023/01/28 11:47:15;;;;;;;11.23;10.03;;;2.90;1.00;;;;;;5045106;28;20271;-65
2023/01/28 11:50:04;;;;;;;13.40;10.87;;;2.90;1.00;;;;;;5046672;28;20192;-64
2023/01/28 11:52:58;;;;;;;14.77;12.67;;;2.80;1.00;;;;;;5028036;28;20271;-64
2023/01/28 11:55:40;;;;;;;12.87;10.03;;;2.90;1.00;;;;;;5028384;28;20225;-63
2023/01/28 11:58:10;;;;;;;11.10;8.63;;;3.10;1.00;;;;;;5044338;28;20199;-64
2023/01/28 12:00:44;;;;;;;9.67;8.37;;;3.10;1.00;;;;;;5045932;28;20278;-66
2023/01/28 12:03:10;;;;;;;11.83;9.10;;;3.20;1.00;;;;;;5045843;28;20203;-63
2023/01/28 12:06:09;;;;;;;8.60;7.80;;;3.20;1.00;;;;;;5045169;28;20294;-67
2023/01/28 12:08:47;;;;;;;11.17;8.40;;;3.30;1.00;;;;;;5046540;28;20203;-60
2023/01/28 12:14:20;;;;;;;10.57;7.63;;;3.30;1.00;;;;;;5014513;28;20674;-64
2023/01/28 12:16:55;;;;;;;9.10;7.77;;;3.40;1.00;;;;;;5042426;28;20356;-65
2023/01/28 12:19:40;;;;;;;8.40;7.50;;;3.40;1.00;;;;;;5044083;28;20290;-65
2023/01/28 12:22:20;;;;;;;12.43;9.13;;;3.10;1.00;;;;;;5045117;28;20199;-63
2023/01/28 12:25:07;;;;;;;9.87;8.87;;;3.10;1.00;;;;;;5045045;28;20210;-64
2023/01/28 12:27:56;;;;;;;9.80;8.37;;;2.90;1.00;;;;;;5046142;28;20709;-63
2023/01/28 12:30:41;;;;;;;11.20;8.90;;;3.10;1.00;;;;;;5046089;28;20188;-65
2023/01/28 12:33:32;;;;;;;10.83;9.07;;;3.10;1.00;;;;;;5046666;28;20214;-66
2023/01/28 12:36:11;;;;;;;9.17;8.37;;;3.50;1.00;;;;;;5019017;28;20274;-67
2023/01/28 12:38:45;;;;;;;8.73;7.93;;;4.20;1.00;;;;;;5045145;28;20221;-66
2023/01/28 12:41:17;;;;;;;9.30;8.40;;;3.50;1.00;;;;;;5045051;28;20211;-66
2023/01/28 12:43:47;;;;;;;8.77;7.90;;;3.30;1.00;;;;;;5044913;28;20195;-65
2023/01/28 12:46:43;;;;;;;9.47;8.57;;;3.30;1.00;;;;;;5043728;28;20775;-65
2023/01/28 12:49:29;;;;;;;9.43;8.53;;;3.30;1.00;;;;;;5036728;28;20302;-65
2023/01/28 12:51:56;;;;;;;10.33;9.33;;;2.80;1.00;;;;;;5044497;28;20200;-59
2023/01/28 12:54:34;;;;;;;10.40;8.27;;;2.90;1.00;;;;;;5022380;28;20238;-66
2023/01/28 12:57:02;;;;;;;10.23;9.20;;;3.30;1.00;;;;;;5045038;28;20274;-66
2023/01/28 12:59:44;;;;;;;11.73;9.37;;;2.90;1.00;;;;;;5043878;28;20196;-65
2023/01/28 13:02:11;;;;;;;9.57;8.10;;;3.90;1.00;;;;;;5044258;28;20215;-67
2023/01/28 13:08:17;;;;;;;10.73;9.73;;;4.50;1.00;;;;;;5040879;28;20744;-67
2023/01/28 13:10:45;;;;;;;8.00;7.20;;;6.50;1.00;;;;;;5044499;28;20195;-67
2023/01/28 13:13:27;;;;;;;8.47;7.43;;;7.10;1.00;;;;;;5018110;28;20636;-65
2023/01/28 13:15:55;;;;;;;10.63;7.77;;;7.20;1.00;;;;;;5042997;28;20205;-65
2023/01/28 13:18:33;;;;;;;8.70;7.53;;;6.70;1.00;;;;;;5045083;28;20230;-66
2023/01/28 13:21:02;;;;;;;8.63;7.83;;;5.90;1.00;;;;;;5044793;28;20271;-66
2023/01/28 13:23:43;;;;;;;7.80;6.97;;;5.40;1.00;;;;;;5044117;28;20721;-65
2023/01/28 13:26:19;;;;;;;8.70;7.87;;;5.60;1.00;;;;;;5047251;28;20207;-64
2023/01/28 13:28:51;;;;;;;9.77;7.90;;;5.80;1.00;;;;;;5024244;28;20824;-64
2023/01/28 13:31:23;;;;;;;8.73;7.83;;;3.90;1.00;;;;;;5029880;28;20196;-65
2023/01/28 13:33:52;;;;;;;9.10;8.30;;;4.20;1.00;;;;;;5049044;28;20341;-65
2023/01/28 13:36:27;;;;;;;9.33;8.43;;;4.20;1.00;;;;;;5046696;28;20223;-64
2023/01/28 13:39:03;;;;;;;21.20;14.27;;;4.20;1.00;;;;;;5048065;28;20260;-65
2023/01/28 13:41:40;;;;;;;9.70;8.80;;;3.60;1.00;;;;;;5030202;28;20598;-63
2023/01/28 13:44:29;;;;;;;9.47;8.33;;;3.70;1.00;;;;;;5047923;28;20215;-65
2023/01/28 13:47:06;;;;;;;12.17;8.77;;;3.40;1.00;;;;;;5047990;28;20281;-62
2023/01/28 13:49:42;;;;;;;9.10;8.07;;;3.40;1.00;;;;;;5048554;28;20195;-67
2023/01/28 13:52:09;;;;;;;10.07;8.93;;;2.80;1.00;;;;;;5048289;28;20245;-64
2023/01/28 13:54:42;;;;;;;10.33;8.47;;;2.80;1.00;;;;;;5048256;28;20282;-64
2023/01/28 13:57:47;;;;;;;9.80;8.30;;;2.80;1.00;;;;;;5049325;28;20304;-64
2023/01/28 14:19:11;;;;;;;10.80;9.10;;;3.10;1.00;;;;;;5044238;28;20664;-57
2023/01/28 14:21:39;;;;;;;10.27;9.23;;;2.60;1.00;;;;;;5046711;28;20341;-59
2023/01/28 14:24:16;;;;;;;11.57;9.07;;;2.30;1.00;;;;;;5047683;28;20229;-58
2023/01/28 14:26:51;;;;;;;11.00;9.90;;;2.30;1.00;;;;;;5028593;28;20229;-56
2023/01/28 14:29:43;;;;;;;12.80;11.30;;;2.30;1.00;;;;;;5029500;28;20317;-58
2023/01/28 14:32:18;;;;;;;11.70;9.63;;;2.30;1.00;;;;;;5038429;28;20754;-58
2023/01/28 14:34:46;;;;;;;16.07;10.10;;;2.00;1.00;;;;;;5046689;28;20205;-58
2023/01/28 14:37:20;;;;;;;12.17;10.37;;;2.00;1.00;;;;;;5028904;28;20253;-59